Time;durP1;ratioP1;P1;durP2;ratioP2;P2;SDS_P1;SDS_P2;PMS_P1;PMS_P2;Temp;Humidity;BMP_temperature;BMP_pressure;BME280_temperature;BME280_humidity;BME280_pressure;Samples;Min_cycle;Max_cycle;Signal;HPM_P1;HPM_P2
2023/07/03 00:00:18;;;;;;;13.82;6.95;;;;;;;15.01;59.32;100381.88;688023;28;1128;-77
2023/07/03 00:00:42;;;;;;;14.48;7.07;;;;;;;14.98;59.43;100376.63;685550;28;1118;-77
2023/07/03 00:01:03;;;;;;;13.88;7.07;;;;;;;14.96;59.61;100376.59;684984;28;1068;-77
2023/07/03 00:01:26;;;;;;;14.60;7.15;;;;;;;14.94;59.64;100381.84;688078;28;1140;-77
2023/07/03 00:01:46;;;;;;;15.70;7.30;;;;;;;14.99;59.52;100383.63;690893;28;1414;-76
2023/07/03 00:02:07;;;;;;;15.57;7.30;;;;;;;14.97;59.63;100383.59;687818;28;1191;-76
2023/07/03 00:02:27;;;;;;;15.93;7.20;;;;;;;14.97;59.66;100377.47;690781;28;1333;-76
2023/07/03 00:02:52;;;;;;;13.48;7.20;;;;;;;14.94;59.67;100375.72;693643;28;830;-77
2023/07/03 00:03:16;;;;;;;14.23;7.30;;;;;;;14.94;59.79;100375.72;689970;28;1083;-76
2023/07/03 00:03:38;;;;;;;14.82;7.47;;;;;;;14.97;59.84;100378.34;688069;28;982;-77
2023/07/03 00:04:00;;;;;;;17.80;7.60;;;;;;;14.98;59.66;100381.88;689488;28;1131;-77
2023/07/03 00:04:23;;;;;;;16.92;7.32;;;;;;;15.08;59.76;100400.28;693047;28;1237;-77
2023/07/03 00:04:45;;;;;;;14.15;6.93;;;;;;;15.00;59.86;100383.59;692158;28;1243;-76
2023/07/03 00:05:08;;;;;;;13.35;6.60;;;;;;;15.07;59.70;100388.00;688331;28;1291;-76
2023/07/03 00:05:30;;;;;;;12.82;6.47;;;;;;;14.98;59.82;100372.22;690612;28;1381;-77
2023/07/03 00:05:50;;;;;;;12.75;6.40;;;;;;;14.97;59.76;100372.19;690996;28;851;-77
2023/07/03 00:06:11;;;;;;;13.07;6.43;;;;;;;15.08;59.77;100395.00;688948;28;1170;-77
2023/07/03 00:06:32;;;;;;;13.68;6.57;;;;;;;15.01;59.88;100387.13;688107;28;1266;-77
2023/07/03 00:06:53;;;;;;;15.57;7.22;;;;;;;15.00;59.88;100378.34;687975;28;1469;-77
2023/07/03 00:07:14;;;;;;;14.98;7.30;;;;;;;15.02;59.78;100384.50;692062;28;1119;-77
2023/07/03 00:07:36;;;;;;;15.13;7.35;;;;;;;15.00;59.85;100383.59;690892;28;852;-77
2023/07/03 00:07:57;;;;;;;13.47;6.80;;;;;;;15.02;59.88;100386.25;689693;28;1300;-77
2023/07/03 00:08:18;;;;;;;13.90;6.72;;;;;;;14.99;60.01;100384.47;691010;28;1328;-77
2023/07/03 00:08:38;;;;;;;13.63;6.80;;;;;;;15.00;59.97;100391.50;693765;28;791;-77
2023/07/03 00:08:59;;;;;;;12.93;6.60;;;;;;;14.94;60.06;100380.97;688114;28;1209;-77
2023/07/03 00:09:20;;;;;;;15.70;7.00;;;;;;;14.98;60.03;100387.13;693075;28;1192;-77
2023/07/03 00:09:41;;;;;;;16.83;7.17;;;;;;;14.94;60.06;100386.22;691680;28;791;-77
2023/07/03 00:10:04;;;;;;;18.42;7.40;;;;;;;14.95;60.45;100382.72;690597;28;1169;-77
2023/07/03 00:10:24;;;;;;;16.67;7.43;;;;;;;14.89;60.18;100373.06;693441;28;1039;-77
2023/07/03 00:10:45;;;;;;;14.73;7.13;;;;;;;14.89;60.28;100377.44;693703;28;728;-77
2023/07/03 00:11:06;;;;;;;13.75;7.13;;;;;;;14.92;60.38;100383.59;690670;28;1216;-77
2023/07/03 00:11:26;;;;;;;12.40;7.03;;;;;;;14.89;60.30;100377.44;690724;28;1169;-76
2023/07/03 00:11:47;;;;;;;15.15;7.10;;;;;;;14.88;60.40;100375.69;688172;28;815;-77
2023/07/03 00:12:10;;;;;;;16.55;7.20;;;;;;;14.95;60.51;100385.34;687631;28;1959;-77
2023/07/03 00:12:31;;;;;;;16.33;7.38;;;;;;;14.87;60.34;100380.06;687930;28;1429;-77
2023/07/03 00:12:51;;;;;;;15.90;7.57;;;;;;;14.88;60.58;100381.81;688133;28;832;-77
2023/07/03 00:13:12;;;;;;;16.30;7.90;;;;;;;14.90;60.61;100387.09;687742;28;1218;-77
2023/07/03 00:13:33;;;;;;;17.58;7.95;;;;;;;14.83;60.41;100374.78;690864;28;1143;-77
2023/07/03 00:13:53;;;;;;;16.23;7.85;;;;;;;14.90;60.46;100400.22;688043;28;1168;-77
2023/07/03 00:14:14;;;;;;;14.13;7.20;;;;;;;14.84;60.73;100387.94;683404;28;1281;-77
2023/07/03 00:14:35;;;;;;;12.85;6.93;;;;;;;14.80;60.63;100387.03;685299;28;887;-77
2023/07/03 00:14:55;;;;;;;16.52;7.05;;;;;;;14.77;60.77;100375.66;685344;28;1187;-77
2023/07/03 00:15:16;;;;;;;17.48;7.20;;;;;;;14.77;60.61;100379.13;683677;28;1175;-77
2023/07/03 00:15:37;;;;;;;16.20;7.40;;;;;;;14.84;60.59;100390.56;688278;28;772;-77
2023/07/03 00:16:02;;;;;;;14.45;7.20;;;;;;;14.80;60.55;100384.41;691168;28;1978;-77
2023/07/03 00:16:23;;;;;;;14.77;6.85;;;;;;;14.77;60.54;100379.13;693416;28;995;-78
2023/07/03 00:16:44;;;;;;;15.20;6.90;;;;;;;14.74;60.39;100373.88;688197;28;1277;-78
2023/07/03 00:17:07;;;;;;;13.25;6.80;;;;;;;14.79;60.33;100382.66;688026;28;1202;-78
2023/07/03 00:17:28;;;;;;;14.30;7.10;;;;;;;14.78;60.22;100370.41;688020;28;1005;-79
2023/07/03 00:17:48;;;;;;;15.77;7.40;;;;;;;14.90;60.24;100400.22;688214;28;854;-77
2023/07/03 00:18:09;;;;;;;16.48;7.50;;;;;;;14.83;59.99;100377.41;686195;28;1269;-77
2023/07/03 00:18:30;;;;;;;13.93;7.00;;;;;;;14.85;59.72;100376.56;688797;28;1059;-77
2023/07/03 00:18:51;;;;;;;14.57;7.18;;;;;;;14.90;59.80;100382.72;686469;28;1302;-77
2023/07/03 00:19:15;;;;;;;15.05;7.10;;;;;;;14.92;59.87;100393.22;685998;28;1135;-77
2023/07/03 00:19:36;;;;;;;15.63;7.32;;;;;;;15.01;59.63;100398.50;687436;28;989;-77
2023/07/03 00:19:57;;;;;;;15.32;6.85;;;;;;;15.00;59.72;100391.50;688030;28;1132;-77
2023/07/03 00:20:18;;;;;;;15.27;6.90;;;;;;;15.04;59.46;100393.28;687448;28;1147;-77
2023/07/03 00:20:39;;;;;;;17.17;7.20;;;;;;;15.05;59.41;100399.38;688166;28;897;-78
2023/07/03 00:21:00;;;;;;;16.60;7.50;;;;;;;15.01;59.52;100387.97;688585;28;1044;-78
2023/07/03 00:21:20;;;;;;;16.03;7.37;;;;;;;14.98;59.50;100385.34;685185;28;1321;-78
2023/07/03 00:21:44;;;;;;;13.85;6.82;;;;;;;15.01;59.32;100398.50;696206;28;1049;-77
2023/07/03 00:22:05;;;;;;;14.45;7.22;;;;;;;14.94;59.24;100383.59;690986;28;1164;-78
2023/07/03 00:22:26;;;;;;;13.47;7.33;;;;;;;14.95;59.22;100388.00;687010;28;1459;-77
2023/07/03 00:22:48;;;;;;;14.25;7.30;;;;;;;14.96;59.30;100389.75;685144;28;1444;-77
2023/07/03 00:23:08;;;;;;;13.50;6.70;;;;;;;14.93;59.25;100389.72;690429;28;1952;-78
2023/07/03 00:23:29;;;;;;;15.43;6.90;;;;;;;14.89;59.24;100385.31;690716;28;1115;-79
2023/07/03 00:23:49;;;;;;;18.50;7.03;;;;;;;14.97;58.93;100404.63;690782;28;826;-78
2023/07/03 00:24:11;;;;;;;18.23;7.20;;;;;;;15.00;58.84;100396.75;692755;28;1186;-78
2023/07/03 00:24:32;;;;;;;16.20;7.15;;;;;;;14.99;59.01;100388.88;690335;28;1347;-78
2023/07/03 00:24:53;;;;;;;14.13;7.10;;;;;;;14.96;58.98;100395.00;690762;28;1195;-78
2023/07/03 00:25:15;;;;;;;14.18;7.13;;;;;;;14.97;58.85;100401.09;688775;28;1716;-77
2023/07/03 00:25:37;;;;;;;14.20;7.05;;;;;;;14.86;58.88;100386.19;688539;28;905;-77
2023/07/03 00:25:58;;;;;;;12.70;6.90;;;;;;;14.79;59.05;100382.66;690725;28;979;-78
2023/07/03 00:26:19;;;;;;;12.20;6.80;;;;;;;14.90;58.97;100394.97;691983;28;1304;-78
2023/07/03 00:26:40;;;;;;;12.57;6.80;;;;;;;14.84;58.85;100387.94;690895;28;767;-77
2023/07/03 00:27:01;;;;;;;13.15;6.78;;;;;;;14.83;59.09;100387.91;692546;28;1075;-78
2023/07/03 00:27:22;;;;;;;14.70;6.53;;;;;;;14.73;59.26;100369.50;694892;28;1255;-78
2023/07/03 00:27:44;;;;;;;17.40;6.70;;;;;;;14.79;59.32;100393.19;696493;28;806;-78
2023/07/03 00:28:05;;;;;;;17.90;6.55;;;;;;;14.76;59.16;100390.50;687127;28;1663;-78
2023/07/03 00:28:26;;;;;;;16.57;6.43;;;;;;;14.71;59.34;100379.13;688047;28;1209;-78
2023/07/03 00:28:46;;;;;;;13.15;6.18;;;;;;;14.73;59.17;100387.88;688236;28;816;-76
2023/07/03 00:29:07;;;;;;;12.27;6.40;;;;;;;14.82;59.17;100410.72;688465;28;1177;-78
2023/07/03 00:29:31;;;;;;;11.97;6.50;;;;;;;14.82;58.68;100394.06;690723;28;933;-78
2023/07/03 00:29:51;;;;;;;12.77;6.35;;;;;;;14.68;59.02;100386.97;685625;28;1119;-77
2023/07/03 00:30:12;;;;;;;12.90;6.13;;;;;;;14.67;58.55;100382.59;686355;28;1108;-79
2023/07/03 00:30:33;;;;;;;12.52;6.20;;;;;;;14.75;58.54;100401.03;690715;28;858;-77
2023/07/03 00:30:54;;;;;;;14.00;6.17;;;;;;;14.63;58.23;100373.81;690685;28;1089;-77
2023/07/03 00:31:15;;;;;;;14.57;6.45;;;;;;;14.71;58.16;100387.00;692366;28;1375;-78
2023/07/03 00:31:35;;;;;;;14.17;5.90;;;;;;;14.77;58.15;100399.28;689308;28;1198;-78
2023/07/03 00:31:56;;;;;;;12.18;5.70;;;;;;;14.70;57.85;100381.75;682693;28;1149;-78
2023/07/03 00:32:17;;;;;;;13.43;5.47;;;;;;;14.77;57.89;100392.28;687193;28;1255;-78
2023/07/03 00:32:37;;;;;;;13.73;5.77;;;;;;;14.72;57.56;100382.63;690439;28;1389;-78
2023/07/03 00:32:58;;;;;;;13.55;5.78;;;;;;;14.73;57.60;100387.00;693283;28;1073;-78
2023/07/03 00:33:19;;;;;;;15.38;5.90;;;;;;;14.76;57.54;100390.50;688597;28;1157;-78
2023/07/03 00:33:40;;;;;;;17.75;6.00;;;;;;;14.77;57.41;100384.38;685557;28;1211;-78
2023/07/03 00:34:01;;;;;;;19.75;6.20;;;;;;;14.79;57.16;100380.03;687823;28;1331;-77
2023/07/03 00:34:22;;;;;;;16.52;5.97;;;;;;;14.87;56.70;100385.31;688124;28;980;-78
2023/07/03 00:34:43;;;;;;;13.75;5.93;;;;;;;14.86;56.82;100380.94;688179;28;1102;-77
2023/07/03 00:35:04;;;;;;;14.10;5.60;;;;;;;14.86;56.61;100386.19;687641;28;1281;-78
2023/07/03 00:35:24;;;;;;;14.77;5.68;;;;;;;14.90;56.61;100385.34;696141;28;1633;-78
2023/07/03 00:35:45;;;;;;;15.98;5.90;;;;;;;14.86;56.60;100388.81;690840;28;1188;-78
2023/07/03 00:36:09;;;;;;;13.40;5.90;;;;;;;14.78;56.26;100377.41;692672;28;2045;-78
2023/07/03 00:36:30;;;;;;;13.18;5.78;;;;;;;14.89;56.36;100388.81;685198;28;1168;-78
2023/07/03 00:36:51;;;;;;;14.13;5.70;;;;;;;14.85;56.32;100380.91;682697;29;757;-77
2023/07/03 00:37:14;;;;;;;13.38;5.90;;;;;;;14.84;56.15;100366.03;687640;28;1206;-77
2023/07/03 00:37:35;;;;;;;13.82;5.85;;;;;;;14.90;55.96;100379.19;695352;28;1342;-77
2023/07/03 00:37:55;;;;;;;15.00;6.03;;;;;;;15.00;56.14;100388.84;687930;28;1163;-79
2023/07/03 00:38:16;;;;;;;14.73;5.87;;;;;;;14.92;55.96;100387.97;687809;28;1194;-78
2023/07/03 00:38:36;;;;;;;13.35;5.80;;;;;;;14.93;55.66;100379.19;688231;28;736;-78
2023/07/03 00:38:58;;;;;;;11.37;5.30;;;;;;;14.99;55.91;100394.13;687944;28;1269;-78
2023/07/03 00:39:20;;;;;;;12.80;5.53;;;;;;;15.05;55.68;100399.38;690169;28;1190;-78
2023/07/03 00:39:41;;;;;;;12.93;5.60;;;;;;;14.95;55.72;100374.84;685484;28;1222;-77
2023/07/03 00:40:03;;;;;;;15.20;5.80;;;;;;;14.93;55.70;100373.94;684998;28;1179;-77
2023/07/03 00:40:23;;;;;;;13.65;5.47;;;;;;;14.96;55.58;100384.47;687550;28;1327;-78
2023/07/03 00:40:44;;;;;;;13.33;5.17;;;;;;;15.01;55.71;100400.25;688242;28;782;-78
2023/07/03 00:41:05;;;;;;;13.48;5.30;;;;;;;14.95;55.54;100377.47;690484;28;1209;-77
2023/07/03 00:41:26;;;;;;;13.40;5.47;;;;;;;15.00;55.66;100396.75;690654;28;1268;-78
2023/07/03 00:41:47;;;;;;;17.80;5.85;;;;;;;14.97;55.56;100391.50;688215;28;795;-78
2023/07/03 00:42:07;;;;;;;18.55;5.70;;;;;;;14.93;55.69;100379.19;687666;28;1139;-78
2023/07/03 00:42:30;;;;;;;18.52;5.85;;;;;;;14.87;55.56;100376.56;688007;28;1107;-79
2023/07/03 00:42:52;;;;;;;16.15;5.70;;;;;;;14.94;55.52;100391.50;687619;28;1109;-78
2023/07/03 00:43:13;;;;;;;15.38;6.10;;;;;;;14.92;55.54;100383.59;688824;28;1217;-77
2023/07/03 00:43:39;;;;;;;16.13;6.00;;;;;;;14.86;55.81;100390.59;689826;28;817;-78
2023/07/03 00:44:00;;;;;;;16.33;5.82;;;;;;;14.84;55.77;100384.41;691014;28;1287;-78
2023/07/03 00:44:20;;;;;;;15.48;5.55;;;;;;;14.85;55.87;100387.06;693579;28;1263;-78
2023/07/03 00:44:41;;;;;;;15.75;5.82;;;;;;;14.84;55.90;100389.66;688772;28;835;-78
2023/07/03 00:45:05;;;;;;;18.77;6.00;;;;;;;14.86;55.81;100393.22;690936;28;1262;-77
2023/07/03 00:45:25;;;;;;;21.33;6.35;;;;;;;14.73;55.80;100377.38;688452;28;1176;-77
2023/07/03 00:45:47;;;;;;;17.67;5.80;;;;;;;14.74;55.68;100383.53;688511;28;1362;-78
2023/07/03 00:46:11;;;;;;;15.43;6.07;;;;;;;14.76;55.83;100394.91;690920;28;1318;-77
2023/07/03 00:46:31;;;;;;;13.23;5.95;;;;;;;14.70;55.85;100382.63;687826;28;1011;-78
2023/07/03 00:46:52;;;;;;;12.98;5.72;;;;;;;14.71;55.87;100389.63;688401;28;1397;-79
2023/07/03 00:47:13;;;;;;;13.82;5.70;;;;;;;14.76;56.24;100398.41;690282;28;1218;-77
2023/07/03 00:47:34;;;;;;;14.85;5.88;;;;;;;14.78;55.76;100406.28;688522;28;1256;-78
2023/07/03 00:47:57;;;;;;;14.27;6.07;;;;;;;14.72;55.99;100391.38;683131;29;1209;-77
2023/07/03 00:48:18;;;;;;;15.20;5.80;;;;;;;14.67;56.01;100382.59;687317;28;1199;-77
2023/07/03 00:48:40;;;;;;;15.15;5.57;;;;;;;14.66;55.87;100386.09;688607;28;1550;-77
2023/07/03 00:49:04;;;;;;;15.60;5.70;;;;;;;14.72;55.98;100395.75;688238;28;1092;-78
2023/07/03 00:49:26;;;;;;;19.20;6.03;;;;;;;14.66;55.93;100388.72;688401;28;1242;-78
2023/07/03 00:49:48;;;;;;;18.90;5.50;;;;;;;14.70;56.14;100408.91;686081;28;807;-77
2023/07/03 00:50:10;;;;;;;17.98;5.70;;;;;;;14.66;56.04;100396.59;687341;28;1186;-78
2023/07/03 00:50:32;;;;;;;15.25;5.90;;;;;;;14.58;56.17;100383.44;688578;28;1362;-78
2023/07/03 00:50:52;;;;;;;14.45;6.28;;;;;;;14.58;56.21;100383.44;688525;28;1163;-78
2023/07/03 00:51:14;;;;;;;13.85;5.90;;;;;;;14.61;56.05;100398.31;689603;28;1467;-77
2023/07/03 00:51:39;;;;;;;13.90;5.85;;;;;;;14.64;56.26;100404.47;688594;28;1508;-78
2023/07/03 00:52:02;;;;;;;13.07;5.50;;;;;;;14.55;55.97;100385.19;691157;28;1188;-77
2023/07/03 00:52:23;;;;;;;13.00;5.55;;;;;;;14.56;56.15;100392.19;691196;28;1028;-78
2023/07/03 00:52:49;;;;;;;12.48;5.60;;;;;;;14.55;56.14;100387.81;691274;28;1535;-77
2023/07/03 00:53:10;;;;;;;14.23;5.90;;;;;;;14.59;56.29;100394.81;688069;28;1221;-78
2023/07/03 00:53:31;;;;;;;15.95;5.82;;;;;;;14.50;56.34;100383.41;685870;28;1196;-78
2023/07/03 00:53:51;;;;;;;17.92;6.35;;;;;;;14.57;56.30;100391.31;686025;28;1180;-78
2023/07/03 00:54:12;;;;;;;20.00;6.73;;;;;;;14.55;56.60;100388.66;689491;28;1209;-78
2023/07/03 00:54:33;;;;;;;18.45;6.97;;;;;;;14.56;56.43;100389.56;694049;28;826;-78
2023/07/03 00:54:54;;;;;;;16.93;6.30;;;;;;;14.55;56.47;100393.06;689506;28;1387;-78
2023/07/03 00:55:16;;;;;;;14.48;5.93;;;;;;;14.59;56.23;100405.31;688155;28;1455;-78
2023/07/03 00:55:37;;;;;;;13.73;5.85;;;;;;;14.57;56.26;100386.06;688706;28;858;-77
2023/07/03 00:55:58;;;;;;;13.85;6.20;;;;;;;14.59;56.33;100402.69;688007;28;1975;-77
2023/07/03 00:56:19;;;;;;;15.07;6.30;;;;;;;14.66;56.21;100404.47;690187;28;1271;-78
2023/07/03 00:56:40;;;;;;;14.85;6.00;;;;;;;14.61;56.52;100400.94;688572;28;828;-77
2023/07/03 00:57:00;;;;;;;14.35;5.90;;;;;;;14.58;56.65;100385.19;690858;28;1122;-78
2023/07/03 00:57:23;;;;;;;12.27;5.53;;;;;;;14.59;56.42;100392.19;691135;28;1332;-78
2023/07/03 00:57:43;;;;;;;14.57;5.90;;;;;;;14.63;56.43;100396.59;688587;28;1233;-77
2023/07/03 00:58:04;;;;;;;12.68;5.47;;;;;;;14.64;56.35;100396.59;690951;28;1075;-78
2023/07/03 00:58:26;;;;;;;13.40;5.70;;;;;;;14.61;56.33;100393.06;695991;28;1603;-77
2023/07/03 00:58:47;;;;;;;14.18;5.90;;;;;;;14.60;56.32;100388.69;693880;28;1218;-77
2023/07/03 00:59:08;;;;;;;15.30;6.00;;;;;;;14.62;56.17;100384.34;694258;28;1217;-77
2023/07/03 00:59:30;;;;;;;13.80;5.78;;;;;;;14.55;56.29;100378.16;688421;28;1341;-77
2023/07/03 00:59:50;;;;;;;12.27;5.80;;;;;;;14.55;56.50;100385.19;688340;28;1375;-78
2023/07/03 01:00:13;;;;;;;12.90;6.10;;;;;;;14.53;56.39;100388.66;691340;28;1419;-77
2023/07/03 01:00:43;;;;;;;13.90;6.10;;;;;;;14.48;56.29;100386.88;693885;28;1324;-77
2023/07/03 01:01:17;;;;;;;13.30;5.75;;;;;;;14.50;56.71;100401.78;693126;28;1330;-77
2023/07/03 01:01:45;;;;;;;12.82;5.50;;;;;;;14.43;56.71;100393.88;691319;28;870;-78
2023/07/03 01:02:10;;;;;;;12.30;5.60;;;;;;;14.46;56.97;100405.25;688679;28;1378;-78
2023/07/03 01:02:42;;;;;;;14.00;5.50;;;;;;;14.29;57.03;100373.66;688480;28;1394;-78
2023/07/03 01:03:35;;;;;;;14.82;5.57;;;;;;;14.28;56.93;100371.00;688854;28;1181;-78
2023/07/03 01:04:34;;;;;;;15.05;5.80;;;;;;;14.37;57.13;100399.94;688445;28;1426;-78
2023/07/03 01:05:03;;;;;;;15.30;6.40;;;;;;;14.28;56.91;100389.38;693637;28;1465;-77
2023/07/03 01:05:31;;;;;;;14.05;5.93;;;;;;;14.21;57.24;100378.84;691107;28;1036;-78
2023/07/03 01:05:55;;;;;;;14.02;6.00;;;;;;;14.20;57.24;100389.34;685715;28;1166;-78
2023/07/03 01:06:20;;;;;;;13.07;5.75;;;;;;;14.15;57.23;100381.44;685349;28;1440;-77
2023/07/03 01:07:01;;;;;;;13.95;5.78;;;;;;;14.16;57.26;100384.94;683237;28;1279;-78
2023/07/03 01:07:35;;;;;;;16.50;5.80;;;;;;;14.08;57.54;100374.38;691033;28;1143;-78
2023/07/03 01:07:57;;;;;;;18.65;5.65;;;;;;;14.10;57.56;100384.00;691049;28;1179;-78
2023/07/03 01:08:18;;;;;;;17.38;5.63;;;;;;;14.07;57.32;100380.47;691706;28;1426;-77
2023/07/03 01:08:40;;;;;;;15.52;5.55;;;;;;;14.09;57.34;100389.22;688420;28;1274;-78
2023/07/03 01:09:02;;;;;;;15.18;5.45;;;;;;;14.15;57.17;100399.81;688286;28;1153;-78
2023/07/03 01:09:29;;;;;;;14.43;5.32;;;;;;;14.07;57.30;100394.47;691034;28;1059;-77
2023/07/03 01:09:56;;;;;;;15.23;5.50;;;;;;;14.03;57.24;100373.44;688504;28;1070;-78
2023/07/03 01:10:20;;;;;;;12.80;5.38;;;;;;;14.16;57.43;100395.41;692861;28;1185;-78
2023/07/03 01:10:43;;;;;;;12.90;5.60;;;;;;;14.08;57.55;100387.47;696882;28;870;-78
2023/07/03 01:11:06;;;;;;;14.45;5.85;;;;;;;14.02;57.56;100387.44;693127;28;1200;-76
2023/07/03 01:11:27;;;;;;;13.63;5.43;;;;;;;14.06;57.29;100384.84;691158;28;1128;-77
2023/07/03 01:11:49;;;;;;;12.75;5.43;;;;;;;14.07;57.20;100388.34;688330;28;1891;-77
2023/07/03 01:12:10;;;;;;;11.98;5.32;;;;;;;14.14;57.46;100398.06;688153;28;1134;-77
2023/07/03 01:12:36;;;;;;;12.68;5.30;;;;;;;14.11;57.43;100398.91;688363;28;1336;-77
2023/07/03 01:13:01;;;;;;;13.13;5.20;;;;;;;14.04;57.61;100397.06;688786;28;1331;-77
2023/07/03 01:13:40;;;;;;;16.77;5.45;;;;;;;14.05;57.44;100387.44;691285;28;1095;-78
2023/07/03 01:14:03;;;;;;;17.38;5.50;;;;;;;14.00;57.43;100389.16;685435;28;1256;-78
2023/07/03 01:14:24;;;;;;;15.70;5.80;;;;;;;13.95;57.66;100374.25;690931;28;1269;-78
2023/07/03 01:14:46;;;;;;;15.40;5.60;;;;;;;14.02;57.43;100388.28;688557;28;1134;-77
2023/07/03 01:15:10;;;;;;;13.77;5.50;;;;;;;14.02;57.51;100392.66;688623;28;1455;-77
2023/07/03 01:15:36;;;;;;;14.75;5.30;;;;;;;13.98;57.62;100384.78;693480;28;1206;-78
2023/07/03 01:15:58;;;;;;;14.95;5.40;;;;;;;13.96;57.61;100394.38;692998;28;1916;-77
2023/07/03 01:16:19;;;;;;;12.25;5.10;;;;;;;14.01;57.34;100391.78;690250;28;1111;-78
2023/07/03 01:16:40;;;;;;;14.23;5.47;;;;;;;13.98;57.89;100383.91;691108;28;836;-78
2023/07/03 01:17:01;;;;;;;12.75;5.10;;;;;;;13.95;57.32;100392.63;688248;28;1029;-78
2023/07/03 01:17:25;;;;;;;14.30;5.40;;;;;;;13.94;57.72;100382.09;688218;28;1444;-79
2023/07/03 01:17:50;;;;;;;14.05;5.30;;;;;;;13.92;57.32;100376.88;691150;28;1407;-78
2023/07/03 01:18:12;;;;;;;13.68;5.30;;;;;;;13.97;57.61;100398.75;691708;28;1194;-78
2023/07/03 01:18:33;;;;;;;11.93;5.07;;;;;;;13.94;57.74;100390.88;691256;28;1381;-78
2023/07/03 01:18:58;;;;;;;13.00;5.07;;;;;;;13.92;57.80;100392.59;687984;28;1486;-79
2023/07/03 01:19:29;;;;;;;11.90;4.93;;;;;;;13.93;57.71;100391.75;692815;28;1395;-78
2023/07/03 01:19:50;;;;;;;13.32;5.20;;;;;;;13.88;57.73;100390.81;688486;28;1188;-78
2023/07/03 01:20:16;;;;;;;14.20;5.30;;;;;;;13.94;57.81;100388.25;690857;28;1198;-77
2023/07/03 01:20:42;;;;;;;16.40;5.50;;;;;;;13.96;57.69;100407.50;688518;28;1357;-78
2023/07/03 01:21:12;;;;;;;17.73;5.38;;;;;;;13.94;57.59;100390.88;693315;28;1156;-78
2023/07/03 01:21:58;;;;;;;14.50;5.55;;;;;;;13.87;57.91;100399.53;691197;28;1231;-77
2023/07/03 01:22:27;;;;;;;13.20;5.30;;;;;;;13.83;58.13;100389.91;694658;28;1146;-78
2023/07/03 01:22:57;;;;;;;13.02;5.20;;;;;;;13.84;58.13;100403.00;691318;28;834;-78
2023/07/03 01:23:26;;;;;;;13.35;4.97;;;;;;;13.88;58.11;100405.69;687864;28;1233;-78
2023/07/03 01:23:50;;;;;;;14.63;5.35;;;;;;;13.84;57.96;100395.16;691235;28;852;-77
2023/07/03 01:24:14;;;;;;;14.05;5.43;;;;;;;13.75;58.02;100395.06;690667;28;1433;-78
2023/07/03 01:24:53;;;;;;;12.63;5.10;;;;;;;13.85;58.16;100406.53;688445;28;896;-78
2023/07/03 01:25:19;;;;;;;16.73;5.10;;;;;;;13.68;58.10;100370.56;688144;28;1119;-78
2023/07/03 01:25:42;;;;;;;15.82;4.82;;;;;;;13.69;57.97;100385.41;689407;28;1315;-78
2023/07/03 01:26:04;;;;;;;17.40;5.30;;;;;;;13.76;58.21;100388.09;693663;28;1117;-78
2023/07/03 01:26:27;;;;;;;13.65;5.60;;;;;;;13.84;58.14;100404.78;691050;28;1326;-78
2023/07/03 01:26:48;;;;;;;13.00;5.60;;;;;;;13.74;58.36;100381.94;688513;28;775;-78
2023/07/03 01:27:18;;;;;;;12.93;5.53;;;;;;;13.78;58.54;100395.09;687972;28;1182;-77
2023/07/03 01:27:43;;;;;;;15.15;5.57;;;;;;;13.81;58.23;100402.09;688480;28;1215;-79
2023/07/03 01:28:09;;;;;;;15.95;5.50;;;;;;;13.68;58.25;100386.28;689683;28;1176;-77
2023/07/03 01:28:33;;;;;;;16.00;5.07;;;;;;;13.77;58.42;100389.84;691472;28;1232;-78
2023/07/03 01:28:58;;;;;;;16.17;5.25;;;;;;;13.69;58.47;100392.38;685726;28;1256;-78
2023/07/03 01:29:19;;;;;;;16.25;5.40;;;;;;;13.69;58.63;100384.53;688815;28;1191;-77
2023/07/03 01:29:43;;;;;;;15.10;5.50;;;;;;;13.64;58.46;100381.88;688597;28;889;-77
2023/07/03 01:30:10;;;;;;;16.08;5.60;;;;;;;13.75;58.65;100399.47;689502;28;1114;-77
2023/07/03 01:30:33;;;;;;;14.50;5.20;;;;;;;13.73;58.61;100402.06;689314;28;2019;-78
2023/07/03 01:30:55;;;;;;;15.18;5.35;;;;;;;13.62;58.66;100383.59;691099;28;1186;-77
2023/07/03 01:31:16;;;;;;;13.20;5.13;;;;;;;13.67;58.54;100395.03;687940;28;1334;-78
2023/07/03 01:31:38;;;;;;;12.10;5.30;;;;;;;13.64;58.82;100381.00;685330;28;1455;-77
2023/07/03 01:32:02;;;;;;;10.80;5.15;;;;;;;13.74;58.81;100390.69;688345;28;1070;-77
2023/07/03 01:32:24;;;;;;;9.98;4.63;;;;;;;13.67;58.55;100381.91;688112;28;1391;-77
2023/07/03 01:32:49;;;;;;;10.35;4.70;;;;;;;13.66;58.51;100392.38;685836;28;812;-78
2023/07/03 01:33:17;;;;;;;13.10;5.38;;;;;;;13.67;58.78;100387.16;690559;28;1169;-78
2023/07/03 01:33:41;;;;;;;13.43;5.70;;;;;;;13.67;58.55;100381.91;693438;28;1063;-77
2023/07/03 01:34:03;;;;;;;15.00;5.78;;;;;;;13.64;58.55;100387.09;688065;28;1266;-78
2023/07/03 01:34:27;;;;;;;14.38;5.45;;;;;;;13.69;58.56;100390.66;688415;28;948;-78
2023/07/03 01:34:53;;;;;;;16.52;5.25;;;;;;;13.64;58.82;100384.50;691084;28;1130;-77
2023/07/03 01:35:15;;;;;;;16.67;5.20;;;;;;;13.66;58.64;100388.00;689420;28;1110;-78
2023/07/03 01:35:37;;;;;;;16.80;5.40;;;;;;;13.66;58.83;100392.38;688618;28;1286;-79
2023/07/03 01:35:59;;;;;;;15.32;5.20;;;;;;;13.63;58.52;100372.25;685656;28;1916;-79
2023/07/03 01:36:20;;;;;;;16.38;5.40;;;;;;;13.66;58.50;100385.38;687609;28;1092;-78
2023/07/03 01:36:42;;;;;;;16.83;5.10;;;;;;;13.71;58.77;100394.16;687980;28;1314;-78
2023/07/03 01:37:04;;;;;;;15.45;4.97;;;;;;;13.73;58.42;100390.69;687981;28;1139;-78
2023/07/03 01:37:28;;;;;;;12.38;5.10;;;;;;;13.76;58.19;100395.97;685661;28;950;-78
2023/07/03 01:37:52;;;;;;;12.80;5.43;;;;;;;13.73;58.45;100381.09;685227;28;1248;-78
2023/07/03 01:38:15;;;;;;;12.45;5.55;;;;;;;13.80;58.32;100392.50;687924;28;1172;-77
2023/07/03 01:38:36;;;;;;;13.18;4.95;;;;;;;13.76;58.47;100381.09;690301;28;1368;-77
2023/07/03 01:38:59;;;;;;;13.20;5.07;;;;;;;13.81;58.30;100400.38;688428;28;1017;-78
2023/07/03 01:39:21;;;;;;;15.02;5.10;;;;;;;13.79;58.39;100393.38;690795;28;1170;-78
2023/07/03 01:39:45;;;;;;;15.05;5.55;;;;;;;13.76;58.27;100380.22;691249;28;1326;-77
2023/07/03 01:40:12;;;;;;;17.15;5.57;;;;;;;13.77;58.43;100382.84;687901;28;1194;-77
2023/07/03 01:40:34;;;;;;;17.25;5.63;;;;;;;13.81;58.15;100387.28;685795;28;804;-78
2023/07/03 01:40:58;;;;;;;16.98;5.80;;;;;;;13.76;58.00;100375.00;685524;28;1212;-78
2023/07/03 01:41:19;;;;;;;15.18;5.72;;;;;;;13.91;58.18;100411.84;690163;28;1166;-78
2023/07/03 01:41:40;;;;;;;15.10;5.63;;;;;;;13.83;58.29;100398.66;691318;28;831;-78
2023/07/03 01:42:01;;;;;;;15.50;5.70;;;;;;;13.87;58.19;100394.31;688805;28;1049;-78
2023/07/03 01:42:25;;;;;;;15.68;6.05;;;;;;;13.87;58.38;100390.81;688082;28;1162;-78
2023/07/03 01:42:46;;;;;;;14.63;5.63;;;;;;;13.93;57.98;100404.84;688504;28;832;-78
2023/07/03 01:43:09;;;;;;;13.27;5.57;;;;;;;13.83;58.18;100382.91;688497;28;1351;-78
2023/07/03 01:43:30;;;;;;;15.60;5.97;;;;;;;13.90;58.34;100393.44;691130;28;1897;-77
2023/07/03 01:43:51;;;;;;;16.52;6.20;;;;;;;13.89;58.10;100392.56;691176;28;847;-78
2023/07/03 01:44:11;;;;;;;17.42;6.13;;;;;;;13.82;58.05;100380.25;685329;28;1226;-78
2023/07/03 01:44:32;;;;;;;16.90;5.70;;;;;;;13.84;58.07;100370.69;691111;28;1233;-77
2023/07/03 01:44:53;;;;;;;16.05;5.40;;;;;;;13.96;58.05;100404.00;691042;28;1159;-77
2023/07/03 01:45:15;;;;;;;14.23;5.40;;;;;;;13.88;58.11;100385.56;686778;28;1248;-78
2023/07/03 01:45:44;;;;;;;13.43;5.47;;;;;;;13.85;57.90;100368.06;685780;28;1524;-77
2023/07/03 01:46:07;;;;;;;12.82;5.30;;;;;;;13.88;57.88;100385.56;688198;28;1371;-77
2023/07/03 01:47:09;;;;;;;12.88;5.20;;;;;;;13.97;58.20;100396.13;690924;28;1250;-76
2023/07/03 01:47:30;;;;;;;14.80;6.15;;;;;;;13.87;57.96;100382.94;691693;28;1003;-77
2023/07/03 01:47:50;;;;;;;13.77;5.97;;;;;;;13.89;57.93;100392.56;694385;28;760;-78
2023/07/03 01:48:11;;;;;;;13.00;5.60;;;;;;;13.96;58.29;100404.88;694782;28;1213;-78
2023/07/03 01:48:33;;;;;;;11.77;5.40;;;;;;;13.91;58.04;100382.97;696395;28;1253;-77